sensor_id;sensor_type;location;lat;lon;timestamp;pressure;altitude;pressure_sealevel;temperature;humidity
57668;BME280;43499;52.366;12.912;2023-07-02T00:00:12;99998.13;;;17.49;99.36
57668;BME280;43499;52.366;12.912;2023-07-02T00:01:13;100036.13;;;17.67;99.26
57668;BME280;43499;52.366;12.912;2023-07-02T00:02:15;100026.31;;;17.66;99.25
57668;BME280;43499;52.366;12.912;2023-07-02T00:03:17;100017.84;;;17.54;99.36
57668;BME280;43499;52.366;12.912;2023-07-02T00:04:22;100030.75;;;17.66;99.52
57668;BME280;43499;52.366;12.912;2023-07-02T00:05:23;100027.13;;;17.64;99.06
57668;BME280;43499;52.366;12.912;2023-07-02T00:06:25;100035.28;;;17.68;99.28
57668;BME280;43499;52.366;12.912;2023-07-02T00:07:26;100034.34;;;17.68;99.13
57668;BME280;43499;52.366;12.912;2023-07-02T00:08:27;100034.09;;;17.62;99.07
57668;BME280;43499;52.366;12.912;2023-07-02T00:09:28;100027.75;;;17.58;99.52
57668;BME280;43499;52.366;12.912;2023-07-02T00:10:29;100032.25;;;17.59;99.39
57668;BME280;43499;52.366;12.912;2023-07-02T00:11:30;100036.56;;;17.57;99.71
57668;BME280;43499;52.366;12.912;2023-07-02T00:12:31;100048.19;;;17.59;99.88
57668;BME280;43499;52.366;12.912;2023-07-02T00:13:32;100039.28;;;17.58;100.00
57668;BME280;43499;52.366;12.912;2023-07-02T00:14:34;100033.78;;;17.54;99.76
57668;BME280;43499;52.366;12.912;2023-07-02T00:15:35;100054.41;;;17.60;99.85
57668;BME280;43499;52.366;12.912;2023-07-02T00:16:42;100037.34;;;17.54;100.00
57668;BME280;43499;52.366;12.912;2023-07-02T00:17:44;100040.00;;;17.54;100.00
57668;BME280;43499;52.366;12.912;2023-07-02T00:18:45;100045.31;;;17.54;100.00
57668;BME280;43499;52.366;12.912;2023-07-02T00:19:53;100035.41;;;17.50;100.00
57668;BME280;43499;52.366;12.912;2023-07-02T00:20:54;100038.78;;;17.46;100.00
57668;BME280;43499;52.366;12.912;2023-07-02T00:21:55;100027.75;;;17.37;100.00
57668;BME280;43499;52.366;12.912;2023-07-02T00:22:56;100029.63;;;17.39;100.00
57668;BME280;43499;52.366;12.912;2023-07-02T00:23:58;100041.28;;;17.43;100.00
57668;BME280;43499;52.366;12.912;2023-07-02T00:24:59;100043.06;;;17.42;100.00
57668;BME280;43499;52.366;12.912;2023-07-02T00:26:00;100017.66;;;17.28;100.00
57668;BME280;43499;52.366;12.912;2023-07-02T00:27:01;100031.31;;;17.37;100.00
57668;BME280;43499;52.366;12.912;2023-07-02T00:28:03;100020.09;;;17.23;100.00
57668;BME280;43499;52.366;12.912;2023-07-02T00:29:04;100042.66;;;17.33;100.00
57668;BME280;43499;52.366;12.912;2023-07-02T00:30:08;100032.81;;;17.31;100.00
57668;BME280;43499;52.366;12.912;2023-07-02T00:31:09;100018.25;;;17.21;100.00
57668;BME280;43499;52.366;12.912;2023-07-02T00:32:10;100038.84;;;17.26;100.00
57668;BME280;43499;52.366;12.912;2023-07-02T00:33:11;100047.78;;;17.29;100.00
57668;BME280;43499;52.366;12.912;2023-07-02T00:34:13;100055.75;;;17.29;100.00
57668;BME280;43499;52.366;12.912;2023-07-02T00:35:15;100049.47;;;17.26;100.00
57668;BME280;43499;52.366;12.912;2023-07-02T00:36:16;100052.97;;;17.25;100.00
57668;BME280;43499;52.366;12.912;2023-07-02T00:37:18;100058.28;;;17.25;100.00
57668;BME280;43499;52.366;12.912;2023-07-02T00:38:19;100055.63;;;17.25;100.00
57668;BME280;43499;52.366;12.912;2023-07-02T00:39:20;100057.22;;;17.22;100.00
57668;BME280;43499;52.366;12.912;2023-07-02T00:40:21;100058.06;;;17.21;100.00
57668;BME280;43499;52.366;12.912;2023-07-02T00:41:23;100049.31;;;17.23;100.00
57668;BME280;43499;52.366;12.912;2023-07-02T00:42:24;100060.94;;;17.25;100.00
57668;BME280;43499;52.366;12.912;2023-07-02T00:43:30;100055.75;;;17.29;100.00
57668;BME280;43499;52.366;12.912;2023-07-02T00:44:31;100038.66;;;17.22;100.00
57668;BME280;43499;52.366;12.912;2023-07-02T00:45:32;100052.31;;;17.31;100.00
57668;BME280;43499;52.366;12.912;2023-07-02T00:46:33;100055.88;;;17.32;100.00
57668;BME280;43499;52.366;12.912;2023-07-02T00:47:35;100053.00;;;17.27;100.00
57668;BME280;43499;52.366;12.912;2023-07-02T00:49:39;100063.19;;;17.37;100.00
57668;BME280;43499;52.366;12.912;2023-07-02T00:50:40;100047.97;;;17.33;100.00
57668;BME280;43499;52.366;12.912;2023-07-02T00:51:42;100062.28;;;17.37;100.00
57668;BME280;43499;52.366;12.912;2023-07-02T00:52:43;100062.28;;;17.37;100.00
57668;BME280;43499;52.366;12.912;2023-07-02T00:53:45;100063.28;;;17.39;100.00
57668;BME280;43499;52.366;12.912;2023-07-02T00:54:46;100066.06;;;17.42;100.00
57668;BME280;43499;52.366;12.912;2023-07-02T00:55:48;100053.63;;;17.41;100.00
57668;BME280;43499;52.366;12.912;2023-07-02T00:56:49;100064.38;;;17.44;100.00
57668;BME280;43499;52.366;12.912;2023-07-02T00:57:51;100061.69;;;17.44;100.00
57668;BME280;43499;52.366;12.912;2023-07-02T00:58:55;100050.03;;;17.40;100.00
57668;BME280;43499;52.366;12.912;2023-07-02T00:59:59;100050.03;;;17.40;100.00
57668;BME280;43499;52.366;12.912;2023-07-02T01:01:06;100053.69;;;17.42;100.00
57668;BME280;43499;52.366;12.912;2023-07-02T01:02:07;100053.81;;;17.46;100.00
57668;BME280;43499;52.366;12.912;2023-07-02T01:03:08;100047.25;;;17.37;100.00
57668;BME280;43499;52.366;12.912;2023-07-02T01:04:09;100053.34;;;17.35;100.00
57668;BME280;43499;52.366;12.912;2023-07-02T01:05:16;100061.41;;;17.36;100.00
57668;BME280;43499;52.366;12.912;2023-07-02T01:06:17;100057.56;;;17.30;100.00
57668;BME280;43499;52.366;12.912;2023-07-02T01:07:20;100067.59;;;17.37;100.00
57668;BME280;43499;52.366;12.912;2023-07-02T01:08:22;100048.81;;;17.32;99.83
57668;BME280;43499;52.366;12.912;2023-07-02T01:09:24;100062.94;;;17.31;100.00
57668;BME280;43499;52.366;12.912;2023-07-02T01:10:28;100067.41;;;17.32;99.70
57668;BME280;43499;52.366;12.912;2023-07-02T01:11:38;100062.09;;;17.32;99.24
57668;BME280;43499;52.366;12.912;2023-07-02T01:12:41;100051.34;;;17.29;98.95
57668;BME280;43499;52.366;12.912;2023-07-02T01:13:42;100061.75;;;17.24;99.53
57668;BME280;43499;52.366;12.912;2023-07-02T01:14:48;100067.22;;;17.27;99.49
57668;BME280;43499;52.366;12.912;2023-07-02T01:15:52;100061.81;;;17.26;99.63
57668;BME280;43499;52.366;12.912;2023-07-02T01:16:54;100064.72;;;17.31;99.25
57668;BME280;43499;52.366;12.912;2023-07-02T01:17:56;100043.03;;;17.21;98.56
57668;BME280;43499;52.366;12.912;2023-07-02T01:18:58;100056.66;;;17.29;98.56
57668;BME280;43499;52.366;12.912;2023-07-02T01:19:59;100073.63;;;17.33;98.46
57668;BME280;43499;52.366;12.912;2023-07-02T01:21:00;100062.06;;;17.31;98.36
57668;BME280;43499;52.366;12.912;2023-07-02T01:22:02;100051.13;;;17.24;98.21
57668;BME280;43499;52.366;12.912;2023-07-02T01:23:04;100056.66;;;17.29;98.38
57668;BME280;43499;52.366;12.912;2023-07-02T01:24:05;100051.34;;;17.29;97.91
57668;BME280;43499;52.366;12.912;2023-07-02T01:25:07;100067.56;;;17.35;98.02
57668;BME280;43499;52.366;12.912;2023-07-02T01:26:11;100055.94;;;17.33;98.33
57668;BME280;43499;52.366;12.912;2023-07-02T01:27:12;100071.06;;;17.34;98.07
57668;BME280;43499;52.366;12.912;2023-07-02T01:28:14;100052.91;;;17.24;98.28
57668;BME280;43499;52.366;12.912;2023-07-02T01:29:20;100064.72;;;17.31;98.07
57668;BME280;43499;52.366;12.912;2023-07-02T01:30:21;100068.19;;;17.30;97.86
57668;BME280;43499;52.366;12.912;2023-07-02T01:31:22;100049.97;;;17.18;98.10
57668;BME280;43499;52.366;12.912;2023-07-02T01:32:25;100039.16;;;17.13;97.96
57668;BME280;43499;52.366;12.912;2023-07-02T01:33:27;100061.81;;;17.26;97.36
57668;BME280;43499;52.366;12.912;2023-07-02T01:34:28;100068.06;;;17.26;97.54
57668;BME280;43499;52.366;12.912;2023-07-02T01:35:29;100066.09;;;17.22;97.71
57668;BME280;43499;52.366;12.912;2023-07-02T01:36:30;100074.34;;;17.29;97.41
57668;BME280;43499;52.366;12.912;2023-07-02T01:37:31;100072.59;;;17.29;97.39
57668;BME280;43499;52.366;12.912;2023-07-02T01:38:37;100062.56;;;17.22;97.07
57668;BME280;43499;52.366;12.912;2023-07-02T01:39:39;100063.44;;;17.22;97.57
57668;BME280;43499;52.366;12.912;2023-07-02T01:40:40;100075.25;;;17.29;96.94
57668;BME280;43499;52.366;12.912;2023-07-02T01:41:44;100077.97;;;17.31;96.56
57668;BME280;43499;52.366;12.912;2023-07-02T01:42:45;100063.63;;;17.27;96.63
57668;BME280;43499;52.366;12.912;2023-07-02T01:43:46;100059.06;;;17.23;96.39
57668;BME280;43499;52.366;12.912;2023-07-02T01:44:48;100067.13;;;17.26;96.46
57668;BME280;43499;52.366;12.912;2023-07-02T01:45:52;100058.13;;;17.22;96.52
57668;BME280;43499;52.366;12.912;2023-07-02T01:46:53;100067.84;;;17.22;96.26
57668;BME280;43499;52.366;12.912;2023-07-02T01:47:56;100061.72;;;17.23;96.20
57668;BME280;43499;52.366;12.912;2023-07-02T01:48:58;100068.75;;;17.22;96.04
57668;BME280;43499;52.366;12.912;2023-07-02T01:49:59;100056.91;;;17.14;96.34
57668;BME280;43499;52.366;12.912;2023-07-02T01:51:00;100067.78;;;17.20;96.56
57668;BME280;43499;52.366;12.912;2023-07-02T01:52:02;100058.84;;;17.18;96.28
57668;BME280;43499;52.366;12.912;2023-07-02T01:53:03;100065.06;;;17.19;96.42
57668;BME280;43499;52.366;12.912;2023-07-02T01:54:04;100060.69;;;17.19;96.11
57668;BME280;43499;52.366;12.912;2023-07-02T01:55:05;100058.38;;;17.07;96.51
57668;BME280;43499;52.366;12.912;2023-07-02T01:56:06;100069.13;;;17.10;96.93
57668;BME280;43499;52.366;12.912;2023-07-02T01:57:07;100058.31;;;17.06;96.94
57668;BME280;43499;52.366;12.912;2023-07-02T01:58:09;100056.56;;;17.06;97.02
57668;BME280;43499;52.366;12.912;2023-07-02T01:59:10;100055.72;;;17.07;97.37
57668;BME280;43499;52.366;12.912;2023-07-02T02:00:12;100037.00;;;17.04;96.82
57668;BME280;43499;52.366;12.912;2023-07-02T02:01:19;100044.94;;;17.04;97.22
57668;BME280;43499;52.366;12.912;2023-07-02T02:02:20;100063.00;;;17.11;96.69
57668;BME280;43499;52.366;12.912;2023-07-02T02:03:21;100057.69;;;17.11;96.69
57668;BME280;43499;52.366;12.912;2023-07-02T02:04:23;100069.91;;;17.08;97.08
57668;BME280;43499;52.366;12.912;2023-07-02T02:05:24;100065.44;;;17.07;97.08
57668;BME280;43499;52.366;12.912;2023-07-02T02:06:25;100063.81;;;17.10;97.08
57668;BME280;43499;52.366;12.912;2023-07-02T02:07:26;100071.00;;;17.13;96.74
57668;BME280;43499;52.366;12.912;2023-07-02T02:08:27;100046.66;;;17.02;96.77
57668;BME280;43499;52.366;12.912;2023-07-02T02:09:28;100056.31;;;17.00;97.10
57668;BME280;43499;52.366;12.912;2023-07-02T02:10:31;100070.75;;;17.07;96.79
57668;BME280;43499;52.366;12.912;2023-07-02T02:11:33;100077.94;;;17.09;96.82
57668;BME280;43499;52.366;12.912;2023-07-02T02:12:35;100064.16;;;16.99;96.86
57668;BME280;43499;52.366;12.912;2023-07-02T02:13:41;100073.22;;;17.02;97.52
57668;BME280;43499;52.366;12.912;2023-07-02T02:14:42;100060.47;;;16.95;97.21
57668;BME280;43499;52.366;12.912;2023-07-02T02:15:43;100080.25;;;17.02;97.31
57668;BME280;43499;52.366;12.912;2023-07-02T02:16:44;100080.94;;;16.98;97.45
57668;BME280;43499;52.366;12.912;2023-07-02T02:17:48;100065.88;;;16.96;97.21
57668;BME280;43499;52.366;12.912;2023-07-02T02:18:49;100069.56;;;17.00;97.27
57668;BME280;43499;52.366;12.912;2023-07-02T02:19:55;100067.59;;;16.96;97.46
57668;BME280;43499;52.366;12.912;2023-07-02T02:20:56;100064.91;;;16.94;97.03
57668;BME280;43499;52.366;12.912;2023-07-02T02:21:57;100072.13;;;16.99;97.15
57668;BME280;43499;52.366;12.912;2023-07-02T02:22:59;100065.88;;;16.96;96.94
57668;BME280;43499;52.366;12.912;2023-07-02T02:24:00;100071.00;;;16.93;97.11
57668;BME280;43499;52.366;12.912;2023-07-02T02:25:02;100066.53;;;16.92;97.45
57668;BME280;43499;52.366;12.912;2023-07-02T02:26:04;100071.09;;;16.95;97.55
57668;BME280;43499;52.366;12.912;2023-07-02T02:27:05;100069.38;;;16.95;96.87
57668;BME280;43499;52.366;12.912;2023-07-02T02:28:06;100067.66;;;16.98;96.63
57668;BME280;43499;52.366;12.912;2023-07-02T02:29:07;100074.78;;;16.99;96.79
57668;BME280;43499;52.366;12.912;2023-07-02T02:30:09;100062.25;;;16.94;96.75
57668;BME280;43499;52.366;12.912;2023-07-02T02:31:11;100057.53;;;16.89;96.18
57668;BME280;43499;52.366;12.912;2023-07-02T02:32:12;100070.88;;;16.90;96.44
57668;BME280;43499;52.366;12.912;2023-07-02T02:33:14;100072.91;;;16.96;96.31
57668;BME280;43499;52.366;12.912;2023-07-02T02:34:15;100064.16;;;16.79;96.10
57668;BME280;43499;52.366;12.912;2023-07-02T02:35:16;100079.50;;;16.86;96.35
57668;BME280;43499;52.366;12.912;2023-07-02T02:36:18;100071.50;;;16.85;96.61
57668;BME280;43499;52.366;12.912;2023-07-02T02:37:20;100085.22;;;16.94;96.32
57668;BME280;43499;52.366;12.912;2023-07-02T02:38:23;100079.41;;;16.83;96.39
57668;BME280;43499;52.366;12.912;2023-07-02T02:39:24;100062.00;;;16.70;96.66
57668;BME280;43499;52.366;12.912;2023-07-02T02:40:25;100051.38;;;16.70;96.54
57668;BME280;43499;52.366;12.912;2023-07-02T02:41:26;100078.34;;;16.79;96.35
57668;BME280;43499;52.366;12.912;2023-07-02T02:42:28;100092.47;;;16.78;96.54
57668;BME280;43499;52.366;12.912;2023-07-02T02:43:29;100087.06;;;16.77;96.54
57668;BME280;43499;52.366;12.912;2023-07-02T02:44:30;100088.81;;;16.76;96.48
57668;BME280;43499;52.366;12.912;2023-07-02T02:45:33;100088.72;;;16.75;96.38
57668;BME280;43499;52.366;12.912;2023-07-02T02:46:35;100080.66;;;16.72;96.16
57668;BME280;43499;52.366;12.912;2023-07-02T02:47:36;100087.69;;;16.71;96.03
57668;BME280;43499;52.366;12.912;2023-07-02T02:48:37;100094.88;;;16.74;96.14
57668;BME280;43499;52.366;12.912;2023-07-02T02:49:38;100072.88;;;16.57;96.33
57668;BME280;43499;52.366;12.912;2023-07-02T02:50:40;100093.72;;;16.67;96.06
57668;BME280;43499;52.366;12.912;2023-07-02T02:51:42;100093.78;;;16.69;95.88
57668;BME280;43499;52.366;12.912;2023-07-02T02:52:43;100085.75;;;16.67;95.76
57668;BME280;43499;52.366;12.912;2023-07-02T02:53:44;100089.44;;;16.71;95.66
57668;BME280;43499;52.366;12.912;2023-07-02T02:54:45;100068.13;;;16.49;95.51
57668;BME280;43499;52.366;12.912;2023-07-02T02:55:47;100084.47;;;16.59;95.46
57668;BME280;43499;52.366;12.912;2023-07-02T02:56:48;100082.75;;;16.59;95.22
57668;BME280;43499;52.366;12.912;2023-07-02T02:57:49;100086.13;;;16.57;95.35
57668;BME280;43499;52.366;12.912;2023-07-02T02:58:50;100106.22;;;16.70;95.18
57668;BME280;43499;52.366;12.912;2023-07-02T02:59:51;100096.50;;;16.70;94.88
57668;BME280;43499;52.366;12.912;2023-07-02T03:00:52;100086.50;;;16.64;95.01
57668;BME280;43499;52.366;12.912;2023-07-02T03:01:53;100092.78;;;16.66;95.15
57668;BME280;43499;52.366;12.912;2023-07-02T03:02:54;100093.72;;;16.67;94.64
57668;BME280;43499;52.366;12.912;2023-07-02T03:03:58;100065.63;;;16.53;94.37
57668;BME280;43499;52.366;12.912;2023-07-02T03:04:59;100096.56;;;16.72;94.13
57668;BME280;43499;52.366;12.912;2023-07-02T03:06:03;100089.38;;;16.69;93.61
57668;BME280;43499;52.366;12.912;2023-07-02T03:07:04;100058.50;;;16.52;94.10
57668;BME280;43499;52.366;12.912;2023-07-02T03:08:05;100092.00;;;16.69;93.51
57668;BME280;43499;52.366;12.912;2023-07-02T03:09:06;100084.00;;;16.68;93.17
57668;BME280;43499;52.366;12.912;2023-07-02T03:10:08;100081.06;;;16.61;93.23
57668;BME280;43499;52.366;12.912;2023-07-02T03:11:09;100094.66;;;16.69;93.20
57668;BME280;43499;52.366;12.912;2023-07-02T03:12:10;100096.44;;;16.69;93.21
57668;BME280;43499;52.366;12.912;2023-07-02T03:13:12;100099.16;;;16.70;93.28
57668;BME280;43499;52.366;12.912;2023-07-02T03:14:13;100070.22;;;16.57;92.69
57668;BME280;43499;52.366;12.912;2023-07-02T03:15:15;100082.13;;;16.65;92.85
57668;BME280;43499;52.366;12.912;2023-07-02T03:16:18;100100.34;;;16.77;92.91
57668;BME280;43499;52.366;12.912;2023-07-02T03:17:20;100096.63;;;16.73;92.67
57668;BME280;43499;52.366;12.912;2023-07-02T03:18:21;100093.94;;;16.72;92.52
57668;BME280;43499;52.366;12.912;2023-07-02T03:19:22;100094.03;;;16.75;92.42
57668;BME280;43499;52.366;12.912;2023-07-02T03:20:23;100099.34;;;16.75;92.30
57668;BME280;43499;52.366;12.912;2023-07-02T03:21:25;100095.03;;;16.77;92.44
57668;BME280;43499;52.366;12.912;2023-07-02T03:22:26;100107.41;;;16.76;92.21
57668;BME280;43499;52.366;12.912;2023-07-02T03:23:27;100100.19;;;16.74;92.08
57668;BME280;43499;52.366;12.912;2023-07-02T03:24:28;100095.81;;;16.74;92.03
57668;BME280;43499;52.366;12.912;2023-07-02T03:25:29;100080.66;;;16.72;91.96
57668;BME280;43499;52.366;12.912;2023-07-02T03:26:30;100074.91;;;16.62;91.65
57668;BME280;43499;52.366;12.912;2023-07-02T03:27:31;100090.56;;;16.76;92.30
57668;BME280;43499;52.366;12.912;2023-07-02T03:28:32;100090.66;;;16.77;91.71
57668;BME280;43499;52.366;12.912;2023-07-02T03:29:36;100092.38;;;16.77;91.56
57668;BME280;43499;52.366;12.912;2023-07-02T03:30:38;100070.72;;;16.68;91.42
57668;BME280;43499;52.366;12.912;2023-07-02T03:31:39;100091.34;;;16.73;91.09
57668;BME280;43499;52.366;12.912;2023-07-02T03:32:41;100071.50;;;16.65;91.48
57668;BME280;43499;52.366;12.912;2023-07-02T03:33:42;100085.03;;;16.71;91.14
57668;BME280;43499;52.366;12.912;2023-07-02T03:34:43;100082.94;;;16.64;91.20
57668;BME280;43499;52.366;12.912;2023-07-02T03:35:44;100092.94;;;16.70;91.55
57668;BME280;43499;52.366;12.912;2023-07-02T03:36:45;100096.38;;;16.67;91.85
57668;BME280;43499;52.366;12.912;2023-07-02T03:37:46;100104.34;;;16.67;91.70
57668;BME280;43499;52.366;12.912;2023-07-02T03:38:47;100097.06;;;16.63;92.08
57668;BME280;43499;52.366;12.912;2023-07-02T03:39:48;100045.44;;;16.37;91.68
57668;BME280;43499;52.366;12.912;2023-07-02T03:40:49;100093.41;;;16.61;91.60
57668;BME280;43499;52.366;12.912;2023-07-02T03:41:50;100088.94;;;16.60;91.89
57668;BME280;43499;52.366;12.912;2023-07-02T03:42:53;100091.81;;;16.64;91.70
57668;BME280;43499;52.366;12.912;2023-07-02T03:43:54;100104.44;;;16.70;91.51
57668;BME280;43499;52.366;12.912;2023-07-02T03:44:55;100096.50;;;16.70;91.43
57668;BME280;43499;52.366;12.912;2023-07-02T03:45:57;100103.09;;;16.78;91.10
57668;BME280;43499;52.366;12.912;2023-07-02T03:46:58;100101.38;;;16.80;90.85
57668;BME280;43499;52.366;12.912;2023-07-02T03:47:59;100102.09;;;16.76;90.83
57668;BME280;43499;52.366;12.912;2023-07-02T03:49:01;100090.09;;;16.65;90.88
57668;BME280;43499;52.366;12.912;2023-07-02T03:50:04;100084.78;;;16.65;90.77
57668;BME280;43499;52.366;12.912;2023-07-02T03:51:06;100103.75;;;16.74;90.89
57668;BME280;43499;52.366;12.912;2023-07-02T03:52:07;100112.78;;;16.78;90.49
57668;BME280;43499;52.366;12.912;2023-07-02T03:53:09;100111.94;;;16.79;90.88
57668;BME280;43499;52.366;12.912;2023-07-02T03:54:10;100102.94;;;16.75;90.83
57668;BME280;43499;52.366;12.912;2023-07-02T03:55:11;100104.81;;;16.78;89.83
57668;BME280;43499;52.366;12.912;2023-07-02T03:56:13;100101.09;;;16.74;90.49
57668;BME280;43499;52.366;12.912;2023-07-02T03:57:14;100108.16;;;16.74;90.42
57668;BME280;43499;52.366;12.912;2023-07-02T03:58:15;100116.41;;;16.80;90.69
57668;BME280;43499;52.366;12.912;2023-07-02T03:59:16;100107.75;;;16.84;90.67
57668;BME280;43499;52.366;12.912;2023-07-02T04:00:17;100108.50;;;16.81;90.12
57668;BME280;43499;52.366;12.912;2023-07-02T04:01:18;100106.97;;;16.87;90.41
57668;BME280;43499;52.366;12.912;2023-07-02T04:02:19;100105.78;;;16.80;90.13
57668;BME280;43499;52.366;12.912;2023-07-02T04:03:20;100103.13;;;16.80;90.04
57668;BME280;43499;52.366;12.912;2023-07-02T04:04:22;100096.44;;;16.69;90.17
57668;BME280;43499;52.366;12.912;2023-07-02T04:05:23;100114.88;;;16.85;89.96
57668;BME280;43499;52.366;12.912;2023-07-02T04:06:24;100105.31;;;16.89;89.71
57668;BME280;43499;52.366;12.912;2023-07-02T04:07:25;100101.72;;;16.88;89.72
57668;BME280;43499;52.366;12.912;2023-07-02T04:08:26;100101.63;;;16.85;89.74
57668;BME280;43499;52.366;12.912;2023-07-02T04:09:28;100101.63;;;16.85;89.51
57668;BME280;43499;52.366;12.912;2023-07-02T04:10:30;100090.66;;;16.77;89.64
57668;BME280;43499;52.366;12.912;2023-07-02T04:11:31;100112.56;;;16.93;89.70
57668;BME280;43499;52.366;12.912;2023-07-02T04:12:32;100119.72;;;16.94;88.81
57668;BME280;43499;52.366;12.912;2023-07-02T04:13:33;100111.66;;;16.92;89.09
57668;BME280;43499;52.366;12.912;2023-07-02T04:14:34;100094.34;;;16.81;89.08
57668;BME280;43499;52.366;12.912;2023-07-02T04:15:35;100108.94;;;16.91;88.70
57668;BME280;43499;52.366;12.912;2023-07-02T04:16:36;100104.19;;;16.84;89.07
57668;BME280;43499;52.366;12.912;2023-07-02T04:17:37;100100.75;;;16.86;88.70
57668;BME280;43499;52.366;12.912;2023-07-02T04:18:38;100112.03;;;17.20;88.41
57668;BME280;43499;52.366;12.912;2023-07-02T04:19:40;100112.09;;;17.21;87.61
57668;BME280;43499;52.366;12.912;2023-07-02T04:20:41;100085.75;;;17.06;87.29
57668;BME280;43499;52.366;12.912;2023-07-02T04:21:42;100123.69;;;17.23;86.57
57668;BME280;43499;52.366;12.912;2023-07-02T04:22:43;100079.41;;;17.03;86.64
57668;BME280;43499;52.366;12.912;2023-07-02T04:23:44;100115.03;;;17.27;86.70
57668;BME280;43499;52.366;12.912;2023-07-02T04:24:45;100112.38;;;17.49;86.19
57668;BME280;43499;52.366;12.912;2023-07-02T04:25:49;100067.72;;;17.19;85.66
57668;BME280;43499;52.366;12.912;2023-07-02T04:26:51;100116.84;;;17.29;85.98
57668;BME280;43499;52.366;12.912;2023-07-02T04:27:52;100111.88;;;17.36;85.50
57668;BME280;43499;52.366;12.912;2023-07-02T04:28:57;100118.13;;;17.38;85.72
57668;BME280;43499;52.366;12.912;2023-07-02T04:30:00;100125.84;;;17.73;84.56
57668;BME280;43499;52.366;12.912;2023-07-02T04:31:01;100110.53;;;17.67;83.91
57668;BME280;43499;52.366;12.912;2023-07-02T04:32:02;100092.44;;;17.58;84.04
57668;BME280;43499;52.366;12.912;2023-07-02T04:33:03;100098.59;;;17.79;82.97
57668;BME280;43499;52.366;12.912;2023-07-02T04:34:06;100135.50;;;17.92;83.14
57668;BME280;43499;52.366;12.912;2023-07-02T04:35:08;100138.63;;;17.82;82.90
57668;BME280;43499;52.366;12.912;2023-07-02T04:36:10;100126.22;;;17.82;82.81
57668;BME280;43499;52.366;12.912;2023-07-02T04:37:11;100125.84;;;17.94;82.67
57668;BME280;43499;52.366;12.912;2023-07-02T04:38:13;100127.00;;;18.01;82.07
57668;BME280;43499;52.366;12.912;2023-07-02T04:39:14;100120.66;;;17.97;82.13
57668;BME280;43499;52.366;12.912;2023-07-02T04:40:16;100124.66;;;18.09;81.78
57668;BME280;43499;52.366;12.912;2023-07-02T04:41:18;100133.66;;;18.33;80.98
57668;BME280;43499;52.366;12.912;2023-07-02T04:42:19;100116.34;;;18.22;80.97
57668;BME280;43499;52.366;12.912;2023-07-02T04:43:21;100128.34;;;18.12;81.00
57668;BME280;43499;52.366;12.912;2023-07-02T04:44:22;100095.34;;;17.86;81.10
57668;BME280;43499;52.366;12.912;2023-07-02T04:45:30;100144.97;;;18.07;81.42
57668;BME280;43499;52.366;12.912;2023-07-02T04:46:37;100114.13;;;17.91;81.02
57668;BME280;43499;52.366;12.912;2023-07-02T04:47:39;100091.72;;;17.84;80.99
57668;BME280;43499;52.366;12.912;2023-07-02T04:48:40;100161.78;;;18.06;80.76
57668;BME280;43499;52.366;12.912;2023-07-02T04:49:42;100103.41;;;17.66;80.76
57668;BME280;43499;52.366;12.912;2023-07-02T04:50:43;100114.03;;;17.87;80.60
57668;BME280;43499;52.366;12.912;2023-07-02T04:51:44;100140.81;;;18.13;80.40
57668;BME280;43499;52.366;12.912;2023-07-02T04:52:45;100161.53;;;18.43;79.78
57668;BME280;43499;52.366;12.912;2023-07-02T04:53:46;100161.84;;;18.51;79.30
57668;BME280;43499;52.366;12.912;2023-07-02T04:54:48;100159.72;;;18.42;79.26
57668;BME280;43499;52.366;12.912;2023-07-02T04:55:49;100160.38;;;18.37;79.29
57668;BME280;43499;52.366;12.912;2023-07-02T04:56:50;100149.00;;;18.41;78.55
57668;BME280;43499;52.366;12.912;2023-07-02T04:57:52;100169.09;;;18.55;78.95
57668;BME280;43499;52.366;12.912;2023-07-02T04:58:53;100143.63;;;18.39;78.71
57668;BME280;43499;52.366;12.912;2023-07-02T04:59:55;100159.78;;;18.44;78.67
57668;BME280;43499;52.366;12.912;2023-07-02T05:00:57;100142.41;;;18.31;78.34
57668;BME280;43499;52.366;12.912;2023-07-02T05:01:58;100157.03;;;18.63;78.33
57668;BME280;43499;52.366;12.912;2023-07-02T05:02:59;100173.22;;;18.70;77.59
57668;BME280;43499;52.366;12.912;2023-07-02T05:04:00;100133.28;;;18.47;78.46
57668;BME280;43499;52.366;12.912;2023-07-02T05:05:02;100168.59;;;18.65;77.77
57668;BME280;43499;52.366;12.912;2023-07-02T05:06:03;100168.34;;;18.58;78.54
57668;BME280;43499;52.366;12.912;2023-07-02T05:07:04;100140.31;;;18.45;77.85
57668;BME280;43499;52.366;12.912;2023-07-02T05:08:06;100124.34;;;18.45;77.34
57668;BME280;43499;52.366;12.912;2023-07-02T05:09:07;100164.38;;;18.71;77.21
57668;BME280;43499;52.366;12.912;2023-07-02T05:10:09;100117.50;;;18.52;76.84
57668;BME280;43499;52.366;12.912;2023-07-02T05:11:10;100125.84;;;18.61;76.25
57668;BME280;43499;52.366;12.912;2023-07-02T05:12:11;100148.72;;;18.56;75.90
57668;BME280;43499;52.366;12.912;2023-07-02T05:13:12;100166.91;;;18.68;76.54
57668;BME280;43499;52.366;12.912;2023-07-02T05:14:14;100163.72;;;18.76;76.49
57668;BME280;43499;52.366;12.912;2023-07-02T05:15:15;100141.75;;;18.82;75.49
57668;BME280;43499;52.366;12.912;2023-07-02T05:16:16;100165.59;;;19.02;75.15
57668;BME280;43499;52.366;12.912;2023-07-02T05:17:17;100161.88;;;19.21;74.80
57668;BME280;43499;52.366;12.912;2023-07-02T05:18:19;100163.13;;;19.56;73.36